Time;durP1;ratioP1;P1;durP2;ratioP2;P2;SDS_P1;SDS_P2;PMS_P1;PMS_P2;Temp;Humidity;BMP_temperature;BMP_pressure;BME280_temperature;BME280_humidity;BME280_pressure;Samples;Min_cycle;Max_cycle;Signal;HPM_P1;HPM_P2
2022/09/20 00:01:08;;;;;;;3.80;1.30;;;;;;;9.69;78.76;98412.48;104937;1271;62870;-24
2022/09/20 00:03:37;;;;;;;1.70;1.00;;;;;;;9.52;79.07;98409.62;104871;1271;74793;-25
2022/09/20 00:06:05;;;;;;;3.10;1.20;;;;;;;9.34;79.33;98406.32;104907;1271;75025;-25
2022/09/20 00:08:33;;;;;;;0.70;0.60;;;;;;;9.15;79.45;98409.30;104773;1274;74230;-25
2022/09/20 00:11:01;;;;;;;1.50;0.90;;;;;;;9.50;79.13;98408.05;104787;1271;62817;-24
2022/09/20 00:13:29;;;;;;;2.50;0.90;;;;;;;9.95;77.90;98408.94;104845;1271;63171;-25
2022/09/20 00:15:56;;;;;;;1.20;0.90;;;;;;;9.92;77.50;98406.77;104899;1271;75729;-25
2022/09/20 00:18:23;;;;;;;1.10;1.00;;;;;;;9.69;77.49;98405.67;104775;1271;77380;-25
2022/09/20 00:20:50;;;;;;;1.90;1.10;;;;;;;9.37;78.07;98401.39;104786;1271;73110;-25
2022/09/20 00:23:18;;;;;;;2.30;1.20;;;;;;;9.07;78.91;98402.02;104754;1271;63250;-26
2022/09/20 00:25:59;;;;;;;3.20;0.80;;;;;;;8.82;79.95;98406.20;104978;1271;61965;-25
2022/09/20 00:28:27;;;;;;;1.30;1.00;;;;;;;9.17;79.91;98404.84;104778;1274;74506;-26
2022/09/20 00:30:55;;;;;;;2.40;1.30;;;;;;;9.58;78.77;98401.96;104996;1274;76050;-26
2022/09/20 00:33:23;;;;;;;1.50;1.10;;;;;;;9.58;78.14;98404.42;104685;1271;75481;-25
2022/09/20 00:35:50;;;;;;;1.30;1.00;;;;;;;9.38;78.14;98409.61;104978;1271;62273;-26
2022/09/20 00:38:17;;;;;;;2.00;1.30;;;;;;;9.13;78.78;98411.23;105111;1271;62662;-25
2022/09/20 00:40:44;;;;;;;1.80;1.20;;;;;;;8.89;79.43;98412.73;105112;1271;76024;-25
2022/09/20 00:43:15;;;;;;;1.00;0.80;;;;;;;8.68;80.34;98413.97;105015;1273;77057;-26
2022/09/20 00:45:43;;;;;;;1.90;1.10;;;;;;;9.06;80.60;98413.15;104882;1274;74400;-25
2022/09/20 00:48:14;;;;;;;1.80;1.40;;;;;;;9.53;79.19;98410.41;104799;1272;62924;-26
2022/09/20 00:50:50;;;;;;;3.30;1.20;;;;;;;9.48;78.87;98411.00;104839;1271;62900;-26
2022/09/20 00:53:25;;;;;;;4.50;1.60;;;;;;;9.24;79.76;98411.52;105113;1271;76536;-26
2022/09/20 00:56:04;;;;;;;1.40;1.30;;;;;;;8.99;81.00;98412.41;105100;1272;77187;-26
2022/09/20 00:58:33;;;;;;;1.80;1.40;;;;;;;8.72;82.25;98416.21;105023;1271;74214;-26
2022/09/20 01:01:00;;;;;;;3.90;1.00;;;;;;;8.53;83.23;98408.77;104453;1272;63552;-25
2022/09/20 01:03:30;;;;;;;1.40;1.10;;;;;;;8.91;82.85;98408.42;105104;1272;63018;-25
2022/09/20 01:05:58;;;;;;;3.20;1.30;;;;;;;9.41;80.70;98407.79;104904;1271;76937;-25
2022/09/20 01:08:25;;;;;;;4.10;1.60;;;;;;;9.45;79.92;98404.71;104873;1272;76958;-25
2022/09/20 01:10:52;;;;;;;3.10;1.80;;;;;;;9.26;80.21;98405.39;105064;1271;74153;-25
2022/09/20 01:13:19;;;;;;;1.50;1.40;;;;;;;9.05;80.80;98409.45;104913;1274;61856;-25
2022/09/20 01:15:46;;;;;;;2.20;1.30;;;;;;;8.79;82.08;98412.85;105069;1274;62839;-25
2022/09/20 01:18:13;;;;;;;7.90;1.20;;;;;;;8.59;83.05;98410.18;105022;1274;75556;-25
2022/09/20 01:20:41;;;;;;;1.30;1.10;;;;;;;8.88;82.80;98405.83;105091;1271;76972;-25
2022/09/20 01:23:30;;;;;;;3.00;1.20;;;;;;;9.28;81.02;98406.29;105113;1271;75178;-25
2022/09/20 01:26:33;;;;;;;2.00;1.20;;;;;;;9.27;80.84;98403.32;104986;1271;62811;-25
2022/09/20 01:29:42;;;;;;;2.60;1.50;;;;;;;9.00;81.53;98406.20;104949;1271;61997;-25
2022/09/20 01:32:12;;;;;;;1.50;1.40;;;;;;;8.64;83.28;98395.59;104952;1271;75350;-25
2022/09/20 01:34:52;;;;;;;1.20;0.90;;;;;;;8.50;83.63;98388.80;104699;1271;77013;-25
2022/09/20 01:37:26;;;;;;;1.50;1.00;;;;;;;8.96;82.66;98380.41;104686;1274;75528;-25
2022/09/20 01:40:03;;;;;;;2.00;1.40;;;;;;;9.39;80.58;98373.15;104829;1273;61997;-25
2022/09/20 01:42:36;;;;;;;2.80;1.60;;;;;;;9.19;80.41;98378.67;105112;1271;63070;-25
2022/09/20 01:45:20;;;;;;;5.60;1.50;;;;;;;8.89;81.37;98379.00;105072;1271;75340;-25
2022/09/20 01:48:09;;;;;;;2.60;1.30;;;;;;;8.59;82.73;98378.73;104781;1271;76768;-25
2022/09/20 01:50:51;;;;;;;4.70;1.50;;;;;;;8.36;83.41;98373.83;104786;1271;75156;-25
2022/09/20 01:53:46;;;;;;;1.00;0.80;;;;;;;8.19;84.10;98373.99;104995;1271;64480;-25
2022/09/20 01:56:37;;;;;;;1.20;0.90;;;;;;;8.90;82.76;98380.09;105114;1271;62121;-25
2022/09/20 01:59:25;;;;;;;4.70;1.40;;;;;;;9.37;80.35;98376.05;105024;1274;75543;-26
2022/09/20 02:01:52;;;;;;;1.90;1.40;;;;;;;9.33;80.07;98377.13;105153;1271;77051;-25
2022/09/20 02:04:41;;;;;;;2.60;1.30;;;;;;;9.13;80.32;98388.86;105171;1271;75234;-25
2022/09/20 02:07:37;;;;;;;2.10;1.60;;;;;;;8.87;80.71;98400.80;105097;1274;63195;-25
2022/09/20 02:10:31;;;;;;;2.90;1.50;;;;;;;8.63;81.34;98414.23;105133;1272;63011;-25
2022/09/20 02:13:02;;;;;;;3.50;1.30;;;;;;;8.47;82.31;98418.40;104765;1272;76344;-25
2022/09/20 02:16:26;;;;;;;1.60;1.10;;;;;;;9.07;81.76;98426.55;104654;1272;76060;-25
2022/09/20 02:19:09;;;;;;;4.20;1.30;;;;;;;9.71;79.27;98431.17;104663;1271;75539;-25
2022/09/20 02:21:42;;;;;;;1.50;1.40;;;;;;;9.62;79.01;98429.07;104717;1271;61711;-25
2022/09/20 02:24:24;;;;;;;1.80;1.50;;;;;;;9.31;79.33;98431.67;104686;1272;62871;-25
2022/09/20 02:27:16;;;;;;;2.50;1.40;;;;;;;9.01;80.19;98432.26;104910;1272;76513;-25
2022/09/20 02:29:46;;;;;;;2.10;1.50;;;;;;;8.74;81.31;98434.08;104883;1271;75682;-25
2022/09/20 02:32:45;;;;;;;3.40;1.40;;;;;;;8.56;82.19;98436.91;105106;1271;75425;-25
2022/09/20 02:35:18;;;;;;;5.50;1.30;;;;;;;9.14;81.29;98438.48;105031;1271;63048;-26
2022/09/20 02:38:04;;;;;;;;;;;;;;;9.58;79.82;98440.59;104898;1271;61852;-25
2022/09/20 02:40:41;;;;;;;2.80;1.50;;;;;;;9.52;79.12;98439.24;105010;1271;76642;-25
2022/09/20 02:43:27;;;;;;;1.80;1.60;;;;;;;9.22;79.74;98436.75;104893;1271;77108;-25
2022/09/20 02:45:58;;;;;;;4.40;1.80;;;;;;;8.87;80.79;98432.95;105133;1271;75352;-25
2022/09/20 02:48:48;;;;;;;3.40;2.40;;;;;;;8.60;81.93;98429.17;104992;1272;63356;-25
2022/09/20 02:51:22;;;;;;;1.70;1.20;;;;;;;8.45;82.86;98430.39;104709;1275;62652;-25
2022/09/20 02:54:08;;;;;;;2.90;1.60;;;;;;;8.97;81.97;98432.30;104728;1274;76585;-25
2022/09/20 02:56:58;;;;;;;3.90;1.90;;;;;;;9.38;80.03;98429.03;104932;1271;76991;-25
2022/09/20 02:59:39;;;;;;;5.60;2.70;;;;;;;9.15;79.97;98425.54;104820;1274;75487;-25
2022/09/20 03:02:22;;;;;;;3.90;1.60;;;;;;;8.92;81.09;98418.15;105022;1271;62819;-25
2022/09/20 03:04:55;;;;;;;2.40;2.00;;;;;;;8.67;82.02;98419.05;104633;1274;63003;-25
2022/09/20 03:08:00;;;;;;;2.10;1.20;;;;;;;8.47;82.83;98417.19;104660;1274;76541;-25
2022/09/20 03:10:35;;;;;;;3.40;1.40;;;;;;;8.91;81.97;98414.97;105028;1271;75904;-25
2022/09/20 03:13:44;;;;;;;4.80;1.80;;;;;;;9.17;80.71;98415.77;104880;1271;74360;-25
2022/09/20 03:16:31;;;;;;;4.90;1.90;;;;;;;9.05;80.77;98410.01;104526;1278;63357;-26
2022/09/20 03:19:16;;;;;;;4.40;2.50;;;;;;;8.83;81.35;98412.16;104520;1278;63112;-25
2022/09/20 03:21:43;;;;;;;3.20;2.30;;;;;;;8.50;82.66;98412.95;104687;1277;76523;-25
2022/09/20 03:24:20;;;;;;;4.70;1.60;;;;;;;8.35;83.55;98409.21;104572;1278;77218;-25
2022/09/20 03:26:50;;;;;;;4.70;1.80;;;;;;;8.77;82.88;98414.27;104478;1278;75405;-25
2022/09/20 03:29:24;;;;;;;4.80;1.90;;;;;;;9.18;80.82;98416.86;104509;1278;63077;-25
2022/09/20 03:32:00;;;;;;;3.10;2.50;;;;;;;9.13;80.52;98418.82;104640;1277;61393;-25
2022/09/20 03:34:42;;;;;;;2.60;2.00;;;;;;;8.86;81.57;98423.84;104389;1278;76813;-25
2022/09/20 03:37:37;;;;;;;3.40;2.30;;;;;;;8.65;82.18;98422.51;104586;1278;74885;-25
2022/09/20 03:40:04;;;;;;;1.90;1.60;;;;;;;8.41;83.58;98425.48;104274;1280;75325;-25
2022/09/20 03:42:32;;;;;;;4.70;1.80;;;;;;;8.87;82.68;98428.95;104260;1281;63079;-25
2022/09/20 03:45:26;;;;;;;2.80;1.90;;;;;;;9.20;80.71;98430.88;104279;1278;62026;-25
2022/09/20 03:48:19;;;;;;;4.20;2.50;;;;;;;9.09;80.79;98428.03;104526;1277;76564;-25
2022/09/20 03:50:55;;;;;;;4.90;2.70;;;;;;;8.75;82.17;98431.88;104510;1272;75729;-25
2022/09/20 03:53:45;;;;;;;4.00;2.90;;;;;;;8.43;83.39;98436.58;104795;1271;73098;-25
2022/09/20 03:56:35;;;;;;;3.20;2.00;;;;;;;8.30;84.49;98436.26;104656;1274;64733;-25
2022/09/20 03:59:37;;;;;;;4.70;2.70;;;;;;;8.93;82.69;98436.13;104655;1274;61083;-25
2022/09/20 04:02:13;;;;;;;2.70;2.40;;;;;;;9.27;80.24;98438.44;104533;1275;76287;-26
2022/09/20 04:04:43;;;;;;;5.10;3.10;;;;;;;9.20;80.31;98438.48;105118;1272;75730;-25
2022/09/20 04:07:48;;;;;;;5.60;2.70;;;;;;;9.06;80.82;98439.89;105102;1271;75123;-25
2022/09/20 04:10:40;;;;;;;3.80;2.90;;;;;;;8.77;81.67;98442.27;104788;1271;61932;-25
2022/09/20 04:13:37;;;;;;;4.20;2.00;;;;;;;8.62;82.61;98438.16;104904;1274;63057;-25
2022/09/20 04:16:40;;;;;;;3.40;2.30;;;;;;;9.27;81.07;98437.77;104746;1274;76527;-25
2022/09/20 04:19:43;;;;;;;3.30;2.60;;;;;;;9.71;79.38;98437.30;104925;1272;76888;-25
2022/09/20 04:22:11;;;;;;;3.90;2.60;;;;;;;9.53;79.01;98441.58;104667;1272;73764;-25
2022/09/20 04:24:49;;;;;;;4.70;2.40;;;;;;;9.27;79.89;98442.98;104800;1271;61739;-25
2022/09/20 04:27:24;;;;;;;6.90;3.00;;;;;;;9.05;80.49;98446.20;104656;1271;61632;-25
2022/09/20 04:29:57;;;;;;;5.10;2.70;;;;;;;8.87;81.26;98446.98;104601;1271;75470;-24
2022/09/20 04:32:24;;;;;;;3.10;2.10;;;;;;;8.71;82.18;98444.36;104738;1271;74928;-24
2022/09/20 04:37:48;;;;;;;2.90;2.60;;;;;;;9.88;78.75;98450.85;104752;1274;63067;-25
2022/09/20 04:40:25;;;;;;;2.90;2.50;;;;;;;9.91;78.01;98449.42;104766;1271;63020;-24
2022/09/20 04:43:04;;;;;;;3.80;2.60;;;;;;;9.67;78.08;98450.81;104791;1272;74154;-25
2022/09/20 04:45:50;;;;;;;4.50;3.00;;;;;;;9.42;78.70;98455.71;104890;1272;77000;-25
2022/09/20 04:48:59;;;;;;;4.00;3.20;;;;;;;9.24;79.44;98462.12;104694;1274;74179;-24
2022/09/20 04:51:41;;;;;;;5.90;2.40;;;;;;;9.07;80.16;98465.41;104246;1278;63059;-24
2022/09/20 04:54:23;;;;;;;2.90;2.20;;;;;;;9.77;78.78;98469.16;104479;1277;63164;-25
2022/09/20 04:57:04;;;;;;;3.50;2.70;;;;;;;10.23;77.71;98466.14;104307;1277;76335;-25
2022/09/20 04:59:47;;;;;;;4.90;3.20;;;;;;;10.23;77.04;98465.52;104616;1277;75809;-24
2022/09/20 05:02:40;;;;;;;4.50;2.90;;;;;;;9.93;77.29;98470.18;104369;1277;74445;-25
2022/09/20 05:05:20;;;;;;;6.20;3.40;;;;;;;9.65;77.94;98469.27;104619;1277;63109;-25
2022/09/20 05:08:08;;;;;;;4.90;3.00;;;;;;;9.46;78.51;98466.95;104306;1277;63046;-25
2022/09/20 05:11:01;;;;;;;2.50;1.90;;;;;;;9.31;79.45;98469.76;104397;1277;76585;-24
2022/09/20 05:13:43;;;;;;;5.40;2.70;;;;;;;9.95;77.97;98466.87;104544;1277;76181;-23
2022/09/20 05:16:21;;;;;;;5.50;3.40;;;;;;;10.37;76.03;98467.01;104543;1278;75142;-26
2022/09/20 05:19:14;;;;;;;4.80;3.40;;;;;;;10.25;75.72;98469.62;104539;1277;63156;-25
2022/09/20 05:22:05;;;;;;;6.20;3.80;;;;;;;10.09;76.50;98470.20;104519;1274;62041;-25
2022/09/20 05:24:38;;;;;;;6.70;3.40;;;;;;;9.60;77.42;98471.52;105052;1271;74461;-25
2022/09/20 05:27:24;;;;;;;6.60;3.20;;;;;;;9.52;78.13;98468.68;105039;1271;75844;-25
2022/09/20 05:30:13;;;;;;;5.10;3.10;;;;;;;9.32;79.18;98465.59;105032;1274;74505;-24
2022/09/20 05:32:59;;;;;;;4.00;2.80;;;;;;;9.72;78.43;98462.66;105168;1271;62799;-23
2022/09/20 05:35:40;;;;;;;5.00;3.10;;;;;;;10.32;76.54;98461.70;105208;1271;61760;-24
2022/09/20 05:38:35;;;;;;;6.80;3.50;;;;;;;10.32;76.24;98463.47;105180;1270;75322;-24
2022/09/20 05:41:07;;;;;;;5.40;3.30;;;;;;;10.15;76.89;98462.72;105194;1271;75914;-24
2022/09/20 05:43:54;;;;;;;5.70;3.70;;;;;;;9.95;77.34;98463.23;105221;1271;73433;-23
2022/09/20 05:46:36;;;;;;;5.00;3.80;;;;;;;9.68;77.93;98468.51;105174;1271;63046;-24
2022/09/20 05:49:19;;;;;;;3.40;2.40;;;;;;;9.52;78.81;98466.83;105131;1271;62051;-24
2022/09/20 05:52:12;;;;;;;4.70;3.00;;;;;;;10.15;77.90;98463.23;105157;1271;76638;-24
2022/09/20 05:54:52;;;;;;;5.20;3.10;;;;;;;10.68;74.63;98461.66;105234;1271;76916;-24
2022/09/20 05:57:46;;;;;;;9.10;3.60;;;;;;;10.69;74.36;98464.65;105211;1271;75537;-24
2022/09/20 06:00:17;;;;;;;6.90;3.40;;;;;;;10.29;75.20;98465.98;105134;1271;63111;-24
2022/09/20 06:03:01;;;;;;;7.80;3.80;;;;;;;10.10;75.31;98470.93;104876;1274;63008;-24
2022/09/20 06:05:41;;;;;;;6.10;3.70;;;;;;;9.44;77.90;98474.73;104966;1272;76695;-23
2022/09/20 06:08:24;;;;;;;4.80;3.60;;;;;;;9.49;78.27;98474.52;104854;1271;76059;-23
2022/09/20 06:11:06;;;;;;;3.50;2.40;;;;;;;9.35;78.92;98478.27;105149;1271;75192;-23
2022/09/20 06:13:40;;;;;;;2.30;2.10;;;;;;;10.03;76.58;98475.86;105129;1271;63111;-24
2022/09/20 06:16:09;;;;;;;;;;;;;;;10.57;74.32;98473.53;105196;1269;61624;-24
2022/09/20 06:19:07;;;;;;;7.10;3.60;;;;;;;10.04;75.24;98479.80;105151;1270;75522;-24
2022/09/20 06:21:40;;;;;;;5.50;3.90;;;;;;;9.96;76.27;98481.38;104598;1274;76926;-24
2022/09/20 06:24:17;;;;;;;3.50;2.70;;;;;;;9.83;77.51;98482.52;105145;1271;75131;-25
2022/09/20 06:26:44;;;;;;;3.10;2.80;;;;;;;10.01;77.03;98479.25;104859;1271;63125;-24
2022/09/20 06:29:11;;;;;;;3.70;2.90;;;;;;;9.97;76.80;98475.02;104982;1271;63021;-24
2022/09/20 06:31:39;;;;;;;7.00;3.20;;;;;;;9.95;76.65;98474.48;104826;1271;75625;-24
2022/09/20 06:34:09;;;;;;;3.60;2.40;;;;;;;9.98;77.25;98474.98;104897;1271;76846;-24
2022/09/20 06:41:25;;;;;;;5.00;2.00;;;;;;;10.50;75.77;98473.16;104848;1271;75096;-24
2022/09/20 06:42:17;;;;;;;18.70;3.70;;;;;;;11.00;71.84;98475.61;104819;1271;63057;-24
2022/09/20 06:44:45;;;;;;;8.80;3.80;;;;;;;10.32;73.01;98481.30;105062;1272;74660;-23
2022/09/20 06:47:13;;;;;;;6.00;3.50;;;;;;;9.86;74.92;98483.40;105103;1271;76102;-24
2022/09/20 06:49:41;;;;;;;4.90;3.00;;;;;;;9.58;76.03;98487.08;105040;1274;75404;-24
2022/09/20 06:52:13;;;;;;;3.70;2.50;;;;;;;9.95;76.39;98486.83;105051;1271;63388;-23
2022/09/20 06:54:44;;;;;;;4.10;2.90;;;;;;;9.94;76.00;98493.48;104890;1271;63073;-24
2022/09/20 06:57:18;;;;;;;6.40;2.70;;;;;;;10.00;76.52;98494.04;104837;1275;75473;-24
2022/09/20 06:59:46;;;;;;;3.40;2.10;;;;;;;10.40;74.09;98488.44;104915;1271;75687;-24
2022/09/20 07:02:12;;;;;;;3.20;2.40;;;;;;;10.88;71.83;98488.88;104938;1271;73397;-24
2022/09/20 07:04:40;;;;;;;4.40;2.60;;;;;;;10.99;71.04;98484.70;104861;1271;62957;-24
2022/09/20 07:07:07;;;;;;;4.00;2.60;;;;;;;11.06;71.62;98486.83;104892;1271;62820;-24
2022/09/20 07:09:35;;;;;;;3.20;2.60;;;;;;;10.99;71.34;98486.10;104861;1271;76601;-25
2022/09/20 07:12:02;;;;;;;4.30;3.00;;;;;;;10.86;71.51;98484.29;104893;1271;75318;-24
2022/09/20 07:14:29;;;;;;;5.10;2.70;;;;;;;10.73;72.52;98479.95;105040;1274;75271;-24
2022/09/20 07:16:57;;;;;;;5.10;2.80;;;;;;;10.63;71.99;98476.50;104937;1272;63080;-24
2022/09/20 07:19:24;;;;;;;5.40;3.30;;;;;;;10.59;72.04;98473.96;104755;1271;61683;-24
2022/09/20 07:21:51;;;;;;;3.90;3.00;;;;;;;10.50;72.35;98473.19;104713;1274;76542;-24
2022/09/20 07:24:18;;;;;;;4.20;2.20;;;;;;;10.65;73.22;98474.39;104882;1271;76874;-24
2022/09/20 07:26:57;;;;;;;4.60;2.10;;;;;;;11.36;71.96;98470.73;104794;1271;75264;-24
2022/09/20 07:29:24;;;;;;;4.30;2.10;;;;;;;12.09;68.90;98471.16;105031;1271;62449;-23
2022/09/20 07:31:51;;;;;;;4.50;2.50;;;;;;;12.35;67.13;98466.74;105099;1271;61816;-24
2022/09/20 07:34:19;;;;;;;4.30;3.00;;;;;;;12.28;66.53;98466.14;105125;1272;76773;-23
2022/09/20 07:36:47;;;;;;;7.10;2.70;;;;;;;12.06;66.74;98471.48;105031;1272;77020;-24
2022/09/20 07:39:14;;;;;;;5.80;3.10;;;;;;;11.90;67.66;98472.06;105005;1271;74115;-24
2022/09/20 07:41:44;;;;;;;3.60;2.50;;;;;;;11.65;68.17;98473.57;105048;1274;61761;-23
2022/09/20 07:44:23;;;;;;;3.50;2.80;;;;;;;11.86;67.96;98477.36;104978;1271;62103;-24
2022/09/20 07:46:51;;;;;;;3.40;2.70;;;;;;;11.91;68.40;98472.52;104834;1271;76653;-23
2022/09/20 07:49:19;;;;;;;4.30;2.70;;;;;;;11.96;68.10;98474.92;104707;1271;75819;-24
2022/09/20 07:51:46;;;;;;;5.20;3.30;;;;;;;11.90;66.64;98472.80;104881;1271;75368;-24
2022/09/20 07:54:13;;;;;;;5.10;3.10;;;;;;;11.73;67.60;98474.36;104700;1272;62953;-24
2022/09/20 07:56:40;;;;;;;3.80;2.90;;;;;;;11.79;68.06;98477.63;104889;1271;61763;-24
2022/09/20 07:59:09;;;;;;;6.50;3.30;;;;;;;11.88;67.40;98474.70;104916;1271;76685;-23
2022/09/20 08:01:37;;;;;;;5.40;3.40;;;;;;;11.86;67.60;98480.91;105044;1271;76748;-24
2022/09/20 08:04:05;;;;;;;6.60;3.20;;;;;;;11.75;67.50;98478.19;104740;1271;75576;-24
2022/09/20 08:06:35;;;;;;;5.70;3.30;;;;;;;11.92;68.68;98480.94;104697;1271;61503;-23
2022/09/20 08:09:03;;;;;;;4.00;3.30;;;;;;;12.01;67.55;98485.09;104740;1271;62987;-24
2022/09/20 08:11:38;;;;;;;4.60;3.20;;;;;;;12.03;66.59;98485.80;104780;1271;76532;-23
2022/09/20 08:14:06;;;;;;;6.60;3.60;;;;;;;11.84;66.18;98486.69;105097;1271;76982;-24
2022/09/20 08:16:46;;;;;;;4.50;3.50;;;;;;;12.17;66.95;98487.14;105086;1271;75617;-24
2022/09/20 08:19:18;;;;;;;3.40;2.70;;;;;;;12.26;66.99;98483.73;104775;1272;62891;-24
2022/09/20 08:21:45;;;;;;;4.50;3.00;;;;;;;12.23;67.28;98478.16;105045;1274;63120;-24
2022/09/20 08:24:12;;;;;;;5.20;2.70;;;;;;;12.09;66.86;98478.67;105024;1271;76723;-24
2022/09/20 08:26:39;;;;;;;3.90;3.50;;;;;;;11.94;67.07;98482.63;104852;1271;77040;-24
2022/09/20 08:29:06;;;;;;;5.30;3.40;;;;;;;11.85;67.80;98484.75;104739;1271;75416;-24
2022/09/20 08:31:36;;;;;;;6.00;3.50;;;;;;;12.00;66.79;98484.17;104788;1271;62081;-24
2022/09/20 08:34:07;;;;;;;7.30;3.70;;;;;;;12.23;67.12;98480.73;104674;1271;61759;-25
2022/09/20 08:36:36;;;;;;;4.90;3.00;;;;;;;12.53;65.94;98483.44;104611;1271;76547;-24
2022/09/20 08:39:04;;;;;;;4.90;3.20;;;;;;;12.33;64.39;98483.27;104733;1271;76942;-24
2022/09/20 08:41:57;;;;;;;4.20;3.00;;;;;;;12.11;65.59;98486.67;105060;1271;75140;-24
2022/09/20 08:44:33;;;;;;;6.00;3.20;;;;;;;12.09;66.60;98483.18;105057;1271;62970;-24
2022/09/20 08:47:22;;;;;;;5.30;2.90;;;;;;;12.18;67.09;98487.52;105151;1271;63286;-24
2022/09/20 08:49:51;;;;;;;4.40;3.00;;;;;;;12.24;66.64;98485.20;105149;1271;76500;-24
2022/09/20 08:52:29;;;;;;;4.00;3.00;;;;;;;12.10;68.77;98485.19;104404;1271;73730;-24
2022/09/20 08:55:04;;;;;;;4.10;2.30;;;;;;;12.06;68.88;98485.52;105113;1271;74369;-25
2022/09/20 08:57:35;;;;;;;3.60;2.70;;;;;;;12.49;66.95;98483.45;105114;1271;62143;-25
2022/09/20 09:00:03;;;;;;;3.80;2.20;;;;;;;13.00;64.71;98482.30;105127;1271;63100;-26
2022/09/20 09:02:31;;;;;;;5.50;2.90;;;;;;;13.16;64.67;98483.27;104823;1271;76503;-25
2022/09/20 09:04:58;;;;;;;4.70;3.10;;;;;;;12.78;63.42;98482.33;104787;1271;77019;-25
2022/09/20 09:07:25;;;;;;;4.90;3.50;;;;;;;12.37;65.06;98478.40;104750;1271;75327;-25
2022/09/20 09:09:53;;;;;;;6.90;3.70;;;;;;;11.95;67.59;98479.45;104764;1271;61868;-25
2022/09/20 09:12:26;;;;;;;5.10;4.00;;;;;;;11.77;68.02;98478.99;104981;1268;63030;-24
2022/09/20 09:14:58;;;;;;;5.30;4.20;;;;;;;11.61;68.96;98479.02;105090;1274;76759;-25
2022/09/20 09:17:26;;;;;;;4.10;3.50;;;;;;;11.58;69.20;98481.83;104894;1271;77065;-25
2022/09/20 09:20:20;;;;;;;4.10;3.20;;;;;;;11.67;67.85;98480.82;104799;1271;73457;-25
2022/09/20 09:23:01;;;;;;;3.70;3.20;;;;;;;11.74;69.01;98481.54;104926;1271;61647;-25
2022/09/20 09:25:35;;;;;;;3.70;3.00;;;;;;;11.63;66.83;98480.20;104963;1271;61906;-25
2022/09/20 09:28:05;;;;;;;5.50;3.60;;;;;;;11.57;65.95;98480.95;105103;1272;75498;-25
2022/09/20 09:30:37;;;;;;;3.60;3.10;;;;;;;11.56;66.84;98477.57;104790;1271;76954;-24
2022/09/20 09:33:24;;;;;;;3.70;3.30;;;;;;;11.64;64.94;98476.30;104989;1271;75316;-25
2022/09/20 09:36:12;;;;;;;4.00;3.30;;;;;;;11.63;64.70;98478.27;105136;1271;62034;-24
2022/09/20 09:38:40;;;;;;;4.80;2.80;;;;;;;11.63;66.50;98479.88;105155;1271;63020;-24
2022/09/20 09:41:25;;;;;;;4.30;3.10;;;;;;;11.60;64.88;98475.09;104945;1271;76680;-24
2022/09/20 09:44:05;;;;;;;4.30;3.10;;;;;;;11.59;64.94;98472.05;105044;1272;76996;-25
2022/09/20 09:46:33;;;;;;;4.40;3.40;;;;;;;11.48;65.73;98473.81;104978;1271;74040;-25
2022/09/20 09:49:04;;;;;;;8.40;3.80;;;;;;;11.49;66.14;98473.76;104921;1271;61939;-25
2022/09/20 09:51:35;;;;;;;5.20;3.60;;;;;;;11.49;65.98;98469.66;105106;1269;62030;-25
2022/09/20 09:54:02;;;;;;;5.60;3.20;;;;;;;11.47;65.97;98470.91;104870;1271;76690;-25
2022/09/20 09:56:38;;;;;;;5.70;2.10;;;;;;;11.54;67.41;98467.81;105126;1271;76969;-25
2022/09/20 09:59:27;;;;;;;5.70;2.40;;;;;;;12.25;65.61;98470.85;105255;1271;75150;-25
2022/09/20 10:02:01;;;;;;;6.00;2.80;;;;;;;12.87;62.77;98470.36;104994;1271;61746;-25
2022/09/20 10:04:54;;;;;;;3.50;2.70;;;;;;;13.11;62.85;98471.38;104965;1271;60942;-26
2022/09/20 10:07:33;;;;;;;3.00;2.70;;;;;;;13.09;60.93;98469.93;105135;1271;74291;-25
2022/09/20 10:10:00;;;;;;;4.30;2.60;;;;;;;13.01;60.31;98471.00;105081;1271;76740;-25
2022/09/20 10:12:54;;;;;;;4.60;3.00;;;;;;;12.96;61.87;98472.20;105133;1271;75146;-24
2022/09/20 10:15:29;;;;;;;5.00;3.40;;;;;;;12.86;62.37;98476.02;104988;1271;63242;-25
2022/09/20 10:18:12;;;;;;;5.50;3.30;;;;;;;12.76;62.59;98469.86;105080;1271;61689;-24
2022/09/20 10:20:58;;;;;;;5.20;4.20;;;;;;;12.65;63.01;98467.26;105264;1270;76585;-25
2022/09/20 10:23:28;;;;;;;7.20;3.70;;;;;;;12.19;64.01;98464.65;105111;1271;75568;-24
2022/09/20 10:26:34;;;;;;;5.50;3.80;;;;;;;12.42;63.20;98465.16;105157;1271;73403;-24
2022/09/20 10:29:14;;;;;;;3.80;3.20;;;;;;;12.45;63.13;98460.23;105256;1271;62797;-24
2022/09/20 10:32:06;;;;;;;4.40;3.30;;;;;;;12.53;63.76;98463.75;105150;1271;62810;-24
2022/09/20 10:34:49;;;;;;;5.00;3.50;;;;;;;12.55;64.03;98461.64;105248;1271;76692;-23
2022/09/20 10:37:32;;;;;;;4.00;3.00;;;;;;;12.58;64.12;98459.90;104852;1271;76785;-24
2022/09/20 10:40:14;;;;;;;5.80;3.00;;;;;;;12.56;63.97;98458.02;104819;1271;75254;-24
2022/09/20 10:46:25;;;;;;;5.00;2.90;;;;;;;12.21;63.31;98454.88;104884;1271;62081;-24
2022/09/20 10:49:10;;;;;;;7.40;2.60;;;;;;;12.08;63.49;98458.05;104471;1277;76680;-24
2022/09/20 10:51:43;;;;;;;5.50;2.80;;;;;;;12.03;63.71;98456.58;104572;1277;75931;-24
2022/09/20 10:54:32;;;;;;;5.10;2.80;;;;;;;11.99;63.94;98452.39;104654;1271;74313;-24
2022/09/20 10:57:17;;;;;;;3.90;2.50;;;;;;;11.85;62.61;98452.14;105108;1269;62960;-24
2022/09/20 11:00:13;;;;;;;3.00;2.10;;;;;;;11.85;63.71;98451.66;105071;1271;63204;-24
2022/09/20 11:02:51;;;;;;;6.20;2.10;;;;;;;11.90;64.20;98450.89;104588;1271;76884;-25
2022/09/20 11:05:34;;;;;;;2.40;1.90;;;;;;;12.00;63.55;98453.92;105027;1271;76060;-25
2022/09/20 11:08:12;;;;;;;4.50;2.00;;;;;;;12.05;62.87;98454.48;105085;1271;74408;-24
2022/09/20 11:10:59;;;;;;;2.90;1.90;;;;;;;12.11;63.79;98450.95;104983;1271;62292;-25
2022/09/20 11:13:32;;;;;;;4.10;2.00;;;;;;;12.09;63.47;98448.02;105150;1269;61940;-25
2022/09/20 11:16:13;;;;;;;3.20;1.80;;;;;;;12.07;63.34;98447.36;105128;1271;74308;-25
2022/09/20 11:18:49;;;;;;;4.90;1.80;;;;;;;12.11;64.16;98444.36;105150;1269;76024;-25
2022/09/20 11:21:18;;;;;;;2.70;1.80;;;;;;;12.16;63.40;98443.71;105141;1271;75505;-25
2022/09/20 11:23:50;;;;;;;4.00;2.00;;;;;;;12.17;64.38;98440.14;105151;1271;63107;-26
2022/09/20 11:26:27;;;;;;;2.50;1.80;;;;;;;12.16;64.05;98440.22;105259;1271;62173;-25
2022/09/20 11:28:56;;;;;;;2.90;2.10;;;;;;;12.12;64.23;98437.78;105140;1271;75590;-25
2022/09/20 11:31:32;;;;;;;3.10;1.80;;;;;;;12.04;63.85;98439.40;105156;1271;76982;-25
2022/09/20 11:34:14;;;;;;;2.50;1.80;;;;;;;11.87;62.46;98441.90;105139;1271;75414;-25
2022/09/20 11:36:52;;;;;;;4.20;1.90;;;;;;;11.80;63.81;98440.13;105027;1271;61793;-24
2022/09/20 11:39:51;;;;;;;2.40;1.90;;;;;;;11.83;63.90;98443.88;104848;1271;61100;-23
2022/09/20 11:42:25;;;;;;;3.40;2.20;;;;;;;11.92;64.82;98441.09;104994;1271;76925;-25
2022/09/20 11:44:53;;;;;;;4.50;2.00;;;;;;;11.93;64.28;98441.70;104997;1271;75813;-25
2022/09/20 11:47:22;;;;;;;6.10;2.90;;;;;;;11.90;64.44;98441.83;105199;1271;75354;-25
2022/09/20 11:50:18;;;;;;;3.10;2.00;;;;;;;11.83;63.77;98439.40;105136;1270;62184;-25
2022/09/20 11:53:07;;;;;;;2.80;2.10;;;;;;;11.84;65.24;98440.10;105114;1271;61681;-25
2022/09/20 11:55:48;;;;;;;3.90;2.20;;;;;;;11.89;64.55;98442.05;105141;1271;75310;-26
2022/09/20 11:58:17;;;;;;;4.10;2.30;;;;;;;11.86;64.49;98436.10;105138;1271;77408;-26
2022/09/20 12:00:46;;;;;;;4.80;2.30;;;;;;;11.84;65.40;98438.05;105314;1271;74336;-26
2022/09/20 12:03:30;;;;;;;2.70;1.90;;;;;;;11.99;65.81;98440.27;105080;1272;63308;-24
2022/09/20 12:05:59;;;;;;;3.10;2.60;;;;;;;12.58;63.90;98440.56;105071;1271;62921;-24
2022/09/20 12:08:38;;;;;;;3.60;2.20;;;;;;;12.96;61.63;98443.64;105157;1271;76561;-25
2022/09/20 12:11:09;;;;;;;4.10;2.20;;;;;;;13.03;61.33;98445.73;105135;1271;76934;-25
2022/09/20 12:13:38;;;;;;;4.70;2.50;;;;;;;12.84;61.38;98443.79;105152;1271;75458;-24
2022/09/20 12:16:12;;;;;;;3.20;2.60;;;;;;;12.71;61.83;98443.75;105204;1271;63326;-25
2022/09/20 12:18:47;;;;;;;4.00;2.70;;;;;;;12.50;62.92;98448.23;104987;1271;61744;-25
2022/09/20 12:21:16;;;;;;;5.50;2.90;;;;;;;12.41;63.87;98450.46;104987;1271;75346;-24
2022/09/20 12:23:55;;;;;;;3.60;2.70;;;;;;;12.10;62.99;98447.52;105177;1271;76779;-25
2022/09/20 12:26:25;;;;;;;4.50;2.90;;;;;;;12.01;63.99;98449.77;105131;1271;74296;-24